createdAt,value
2022-10-02T00:02:27.431Z,6.03
2022-10-02T00:05:14.682Z,4.90
2022-10-02T00:08:03.887Z,7.20
2022-10-02T00:10:37.002Z,4.93
2022-10-02T00:13:12.149Z,5.38
2022-10-02T00:15:42.676Z,5.65
2022-10-02T00:18:20.195Z,5.30
2022-10-02T00:21:33.006Z,4.32
2022-10-02T00:24:06.929Z,4.85
2022-10-02T00:27:00.746Z,4.57
2022-10-02T00:29:40.925Z,5.30
2022-10-02T00:32:49.695Z,5.97
2022-10-02T00:36:00.705Z,4.35
2022-10-02T00:39:02.230Z,6.00
2022-10-02T00:41:32.222Z,5.68
2022-10-02T00:44:14.273Z,4.85
2022-10-02T00:47:18.750Z,4.70
2022-10-02T00:49:56.675Z,4.15
2022-10-02T00:52:45.583Z,4.47
2022-10-02T00:55:37.953Z,4.88
2022-10-02T00:58:20.863Z,4.97
2022-10-02T01:01:33.851Z,6.13
2022-10-02T01:04:06.133Z,5.30
2022-10-02T01:06:33.685Z,5.68
2022-10-02T01:09:02.153Z,5.03
2022-10-02T01:11:31.787Z,4.35
2022-10-02T01:13:59.213Z,7.03
2022-10-02T01:16:26.614Z,4.43
2022-10-02T01:18:54.044Z,6.32
2022-10-02T01:21:49.243Z,4.75
2022-10-02T01:24:27.402Z,4.70
2022-10-02T01:26:54.747Z,5.25
2022-10-02T01:29:22.033Z,5.85
2022-10-02T01:31:49.553Z,4.75
2022-10-02T01:34:17.076Z,4.45
2022-10-02T01:36:45.075Z,4.53
2022-10-02T01:39:12.665Z,4.90
2022-10-02T01:41:44.089Z,4.53
2022-10-02T01:44:11.929Z,4.28
2022-10-02T01:46:56.994Z,4.03
2022-10-02T01:49:53.078Z,4.45
2022-10-02T01:52:35.096Z,3.90
2022-10-02T01:55:43.837Z,3.17
2022-10-02T01:58:38.906Z,5.45
2022-10-02T02:01:41.294Z,3.83
2022-10-02T02:04:43.439Z,3.33
2022-10-02T02:07:53.065Z,4.32
2022-10-02T02:10:42.067Z,4.10
2022-10-02T02:13:21.307Z,3.70
2022-10-02T02:16:11.817Z,3.50
2022-10-02T02:18:46.400Z,4.18
2022-10-02T02:23:50.772Z,5.10
2022-10-02T02:26:19.964Z,2.72
2022-10-02T02:28:56.000Z,3.80
2022-10-02T02:31:28.669Z,4.70
2022-10-02T02:34:04.456Z,3.78
2022-10-02T02:36:40.290Z,3.05
2022-10-02T02:39:15.080Z,2.92
2022-10-02T02:41:53.811Z,4.15
2022-10-02T02:44:39.780Z,3.35
2022-10-02T02:47:13.530Z,4.35
2022-10-02T02:49:53.476Z,3.25
2022-10-02T02:52:31.186Z,2.90
2022-10-02T02:55:09.954Z,3.83
2022-10-02T02:58:13.020Z,3.92
2022-10-02T03:00:40.446Z,5.57
2022-10-02T03:03:08.067Z,2.70
2022-10-02T03:05:39.410Z,4.15
2022-10-02T03:08:19.014Z,3.78
2022-10-02T03:11:29.108Z,3.90
2022-10-02T03:14:12.777Z,3.67
2022-10-02T03:17:17.724Z,2.92
2022-10-02T03:20:08.054Z,3.60
2022-10-02T03:22:53.934Z,5.43
2022-10-02T03:25:39.717Z,2.95
2022-10-02T03:28:37.328Z,3.90
2022-10-02T03:31:07.048Z,3.22
2022-10-02T03:33:36.486Z,3.35
2022-10-02T03:36:04.912Z,4.15
2022-10-02T03:38:33.754Z,2.42
2022-10-02T03:41:00.991Z,3.10
2022-10-02T03:43:30.586Z,3.30
2022-10-02T03:45:57.948Z,3.10
2022-10-02T03:48:25.280Z,2.63
2022-10-02T03:50:52.890Z,2.67
2022-10-02T03:53:29.258Z,2.50
2022-10-02T03:56:11.887Z,3.35
2022-10-02T03:58:44.150Z,3.45
2022-10-02T04:01:32.826Z,3.60
2022-10-02T04:04:18.309Z,2.05
2022-10-02T04:06:50.882Z,2.40
2022-10-02T04:09:28.333Z,2.13
2022-10-02T04:12:09.003Z,2.63
2022-10-02T04:14:45.970Z,3.15
2022-10-02T04:17:22.789Z,3.67
2022-10-02T04:19:57.517Z,2.80
2022-10-02T04:22:43.341Z,3.03
2022-10-02T04:25:13.731Z,3.08
2022-10-02T04:27:51.958Z,2.25
2022-10-02T04:30:20.460Z,3.03
2022-10-02T04:32:47.811Z,2.88
2022-10-02T04:35:39.357Z,2.80
2022-10-02T04:38:24.479Z,2.88
2022-10-02T04:41:19.517Z,3.60
2022-10-02T04:44:04.835Z,2.28
2022-10-02T04:47:09.642Z,4.32
2022-10-02T04:49:56.521Z,3.17
2022-10-02T04:52:41.518Z,2.70
2022-10-02T04:58:06.164Z,3.88
2022-10-02T05:00:45.527Z,2.60
2022-10-02T05:03:43.964Z,1.70
2022-10-02T05:06:42.125Z,2.95
2022-10-02T05:09:12.384Z,3.13
2022-10-02T05:12:09.492Z,2.45
2022-10-02T05:14:59.551Z,2.83
2022-10-02T05:17:53.080Z,2.72
2022-10-02T05:20:59.964Z,2.40
2022-10-02T05:23:54.429Z,2.35
2022-10-02T05:26:31.504Z,2.78
2022-10-02T05:29:28.796Z,1.85
2022-10-02T05:32:21.638Z,2.65
2022-10-02T05:35:00.860Z,3.30
2022-10-02T05:37:46.349Z,1.67
2022-10-02T05:40:37.752Z,2.15
2022-10-02T05:43:31.362Z,2.22
2022-10-02T05:46:14.656Z,2.47
2022-10-02T05:48:45.349Z,2.03
2022-10-02T05:51:41.725Z,2.17
2022-10-02T05:54:30.186Z,1.55
2022-10-02T05:57:12.040Z,1.67
2022-10-02T06:00:00.824Z,1.90
2022-10-02T06:02:57.164Z,2.25
2022-10-02T06:05:41.242Z,2.13
2022-10-02T06:08:14.010Z,2.03
2022-10-02T06:10:54.153Z,3.45
2022-10-02T06:13:57.732Z,2.90
2022-10-02T06:16:39.986Z,2.30
2022-10-02T06:19:27.156Z,2.58
2022-10-02T06:22:06.554Z,1.55
2022-10-02T06:24:45.555Z,2.53
2022-10-02T06:27:23.924Z,1.80
2022-10-02T06:30:14.108Z,1.48
2022-10-02T06:33:18.911Z,2.28
2022-10-02T06:35:55.406Z,2.70
2022-10-02T06:38:45.317Z,2.20
2022-10-02T06:41:49.525Z,1.90
2022-10-02T06:44:24.913Z,1.63
2022-10-02T06:46:57.919Z,1.90
2022-10-02T06:49:46.944Z,1.98
2022-10-02T06:52:44.491Z,2.47
2022-10-02T06:55:28.081Z,2.50
2022-10-02T06:58:23.225Z,1.63
2022-10-02T07:01:10.447Z,2.13
2022-10-02T07:04:20.772Z,2.05
2022-10-02T07:07:13.677Z,2.85
2022-10-02T07:09:55.551Z,2.45
2022-10-02T07:12:24.216Z,2.50
2022-10-02T07:15:11.929Z,3.95
2022-10-02T07:17:57.380Z,2.97
2022-10-02T07:20:58.072Z,2.15
2022-10-02T07:23:50.214Z,7.43
2022-10-02T07:26:27.409Z,4.25
2022-10-02T07:29:08.845Z,3.35
2022-10-02T07:31:38.998Z,5.22
2022-10-02T07:34:28.212Z,3.47
2022-10-02T07:37:14.294Z,4.20
2022-10-02T07:39:59.822Z,3.75
2022-10-02T07:43:02.957Z,5.95
2022-10-02T07:45:44.542Z,3.78
2022-10-02T07:48:14.824Z,6.38
2022-10-02T07:51:00.518Z,10.07
2022-10-02T07:53:51.694Z,13.00
2022-10-02T07:56:22.634Z,13.20
2022-10-02T07:59:04.888Z,10.10
2022-10-02T08:01:37.143Z,15.40
2022-10-02T08:04:34.689Z,14.95
2022-10-02T08:07:06.761Z,13.18
2022-10-02T08:09:39.334Z,11.10
2022-10-02T08:12:21.351Z,14.88
2022-10-02T08:14:55.614Z,12.98
2022-10-02T08:17:35.152Z,16.13
2022-10-02T08:20:34.674Z,13.73
2022-10-02T08:23:29.124Z,12.00
2022-10-02T08:26:13.664Z,11.10
2022-10-02T08:29:05.692Z,9.98
2022-10-02T08:31:33.904Z,11.40
2022-10-02T08:34:17.860Z,10.95
2022-10-02T08:37:17.166Z,12.35
2022-10-02T08:40:19.190Z,16.15
2022-10-02T08:43:09.588Z,13.77
2022-10-02T08:46:02.526Z,13.23
2022-10-02T08:48:58.532Z,12.15
2022-10-02T08:52:06.032Z,12.23
2022-10-02T08:54:49.568Z,12.15
2022-10-02T08:57:47.616Z,13.25
2022-10-02T09:00:21.630Z,13.80
2022-10-02T09:03:07.582Z,12.60
2022-10-02T09:06:25.147Z,11.85
2022-10-02T09:09:02.738Z,11.75
2022-10-02T09:11:48.063Z,8.52
2022-10-02T09:14:18.883Z,11.50
2022-10-02T09:17:16.946Z,16.35
2022-10-02T09:20:08.966Z,11.15
2022-10-02T09:22:47.948Z,8.35
2022-10-02T09:25:32.158Z,10.32
2022-10-02T09:28:41.388Z,8.07
2022-10-02T09:31:08.808Z,6.10
2022-10-02T09:34:09.999Z,7.25
2022-10-02T09:36:57.366Z,8.85
2022-10-02T09:39:31.018Z,6.75
2022-10-02T09:42:43.445Z,6.77
2022-10-02T09:45:33.194Z,7.43
2022-10-02T09:48:31.219Z,8.68
2022-10-02T09:51:20.196Z,10.50
2022-10-02T09:53:56.333Z,7.40
2022-10-02T09:56:45.722Z,8.13
2022-10-02T09:59:25.113Z,7.07
2022-10-02T10:02:07.378Z,6.50
2022-10-02T10:05:06.898Z,6.63
2022-10-02T10:07:37.447Z,8.00
2022-10-02T10:10:29.798Z,8.23
2022-10-02T10:13:02.876Z,7.38
2022-10-02T10:15:30.051Z,6.32
2022-10-02T10:18:04.155Z,7.72
2022-10-02T10:20:55.008Z,4.15
2022-10-02T10:23:51.482Z,5.90
2022-10-02T10:26:44.096Z,6.20
2022-10-02T10:29:45.390Z,5.45
2022-10-02T10:32:39.219Z,5.68
2022-10-02T10:35:21.213Z,4.93
2022-10-02T10:38:20.714Z,5.72
2022-10-02T10:40:56.181Z,5.10
2022-10-02T10:43:50.465Z,5.25
2022-10-02T10:46:38.539Z,7.85
2022-10-02T10:49:19.822Z,4.85
2022-10-02T10:52:17.858Z,5.72
2022-10-02T10:54:55.802Z,3.63
2022-10-02T10:57:37.035Z,5.43
2022-10-02T11:00:13.775Z,4.82
2022-10-02T11:02:54.704Z,6.50
2022-10-02T11:05:22.332Z,3.70
2022-10-02T11:08:13.459Z,4.80
2022-10-02T11:11:09.259Z,4.50
2022-10-02T11:14:17.788Z,5.57
2022-10-02T11:17:10.675Z,4.82
2022-10-02T11:20:23.625Z,6.40
2022-10-02T11:23:00.222Z,5.53
2022-10-02T11:25:27.392Z,3.85
2022-10-02T11:28:50.064Z,4.68
2022-10-02T11:31:43.293Z,5.15
2022-10-02T11:34:19.711Z,5.07
2022-10-02T11:37:12.216Z,5.70
2022-10-02T11:40:14.954Z,3.65
2022-10-02T11:43:03.846Z,3.67
2022-10-02T11:45:55.677Z,5.07
2022-10-02T11:48:33.211Z,4.32
2022-10-02T11:51:24.724Z,5.03
2022-10-02T11:54:07.114Z,4.07
2022-10-02T11:57:02.351Z,4.25
2022-10-02T12:02:37.204Z,4.32
2022-10-02T12:05:15.455Z,4.78
2022-10-02T12:08:11.157Z,4.10
2022-10-02T12:11:01.982Z,4.65
2022-10-02T12:13:41.173Z,4.15
2022-10-02T12:16:44.270Z,4.00
2022-10-02T12:19:38.217Z,4.50
2022-10-02T12:22:30.192Z,3.40
2022-10-02T12:25:31.104Z,3.60
2022-10-02T12:28:11.849Z,4.30
2022-10-02T12:31:05.267Z,4.30
2022-10-02T12:33:51.753Z,4.15
2022-10-02T12:36:56.501Z,5.07
2022-10-02T12:39:41.563Z,4.53
2022-10-02T12:42:21.998Z,4.28
2022-10-02T12:45:11.563Z,4.05
2022-10-02T12:47:48.193Z,4.53
2022-10-02T12:50:40.087Z,4.50
2022-10-02T12:54:07.658Z,4.97
2022-10-02T12:56:43.179Z,4.13
2022-10-02T12:59:16.254Z,4.10
2022-10-02T13:02:49.196Z,5.35
2022-10-02T13:05:46.580Z,4.85
2022-10-02T13:08:34.340Z,5.28
2022-10-02T13:11:09.948Z,3.38
2022-10-02T13:14:11.086Z,4.07
2022-10-02T13:17:19.419Z,5.00
2022-10-02T13:20:04.800Z,4.65
2022-10-02T13:22:34.887Z,3.15
2022-10-02T13:25:34.444Z,4.00
2022-10-02T13:28:32.518Z,4.22
2022-10-02T13:31:18.298Z,4.38
2022-10-02T13:34:17.563Z,4.60
2022-10-02T13:37:01.432Z,4.35
2022-10-02T13:39:54.303Z,5.00
2022-10-02T13:42:52.878Z,5.05
2022-10-02T13:45:49.307Z,4.80
2022-10-02T13:48:45.303Z,4.70
2022-10-02T13:51:34.568Z,4.13
2022-10-02T13:54:01.958Z,4.03
2022-10-02T13:57:06.375Z,4.03
2022-10-02T13:59:55.533Z,4.85
2022-10-02T14:02:41.784Z,4.97
2022-10-02T14:05:42.021Z,4.72
2022-10-02T14:08:26.500Z,4.90
2022-10-02T14:11:00.098Z,4.18
2022-10-02T14:13:48.363Z,4.27
2022-10-02T14:16:30.706Z,3.92
2022-10-02T14:19:13.689Z,3.92
2022-10-02T14:22:14.819Z,4.03
2022-10-02T14:25:00.438Z,4.22
2022-10-02T14:27:46.478Z,3.45
2022-10-02T14:30:21.381Z,4.45
2022-10-02T14:33:14.738Z,4.03
2022-10-02T14:35:51.680Z,3.45
2022-10-02T14:39:00.092Z,4.15
2022-10-02T14:42:04.883Z,3.88
2022-10-02T14:44:53.867Z,3.77
2022-10-02T14:47:41.784Z,4.00
2022-10-02T14:50:20.929Z,4.07
2022-10-02T14:53:09.408Z,3.38
2022-10-02T14:56:27.774Z,3.63
2022-10-02T14:59:12.079Z,3.40
2022-10-02T15:02:11.118Z,5.47
2022-10-02T15:04:57.886Z,3.58
2022-10-02T15:07:29.638Z,4.18
2022-10-02T15:10:26.452Z,5.28
2022-10-02T15:13:19.122Z,4.55
2022-10-02T15:16:32.607Z,4.90
2022-10-02T15:19:25.342Z,4.78
2022-10-02T15:22:02.028Z,3.70
2022-10-02T15:24:33.857Z,3.45
2022-10-02T15:27:27.352Z,4.72
2022-10-02T15:30:21.047Z,4.28
2022-10-02T15:33:10.868Z,3.70
2022-10-02T15:36:01.644Z,4.20
2022-10-02T15:38:43.901Z,3.85
2022-10-02T15:41:16.605Z,5.97
2022-10-02T15:44:10.811Z,3.38
2022-10-02T15:46:57.854Z,5.03
2022-10-02T15:49:51.376Z,4.95
2022-10-02T15:52:30.355Z,3.08
2022-10-02T15:55:25.154Z,3.03
2022-10-02T15:58:18.987Z,4.40
2022-10-02T16:01:01.314Z,5.20
2022-10-02T16:03:48.063Z,6.30
2022-10-02T16:06:40.030Z,4.20
2022-10-02T16:09:33.571Z,4.88
2022-10-02T16:12:25.205Z,5.03
2022-10-02T16:15:04.003Z,5.53
2022-10-02T16:17:57.510Z,4.57
2022-10-02T16:20:27.761Z,4.38
2022-10-02T16:23:30.051Z,3.20
2022-10-02T16:26:15.728Z,5.57
2022-10-02T16:28:56.587Z,3.20
2022-10-02T16:31:45.531Z,4.07
2022-10-02T16:34:31.316Z,4.93
2022-10-02T16:37:10.053Z,3.80
2022-10-02T16:39:43.739Z,4.93
2022-10-02T16:42:21.876Z,2.60
2022-10-02T16:44:56.958Z,2.80
2022-10-02T16:47:35.799Z,2.55
2022-10-02T16:50:14.744Z,3.35
2022-10-02T16:52:54.853Z,4.65
2022-10-02T16:55:45.363Z,2.75
2022-10-02T16:58:27.212Z,3.78
2022-10-02T17:01:15.686Z,2.92
2022-10-02T17:03:48.571Z,2.80
2022-10-02T17:06:28.183Z,3.60
2022-10-02T17:09:12.146Z,3.97
2022-10-02T17:11:52.161Z,2.30
2022-10-02T17:14:50.499Z,3.97
2022-10-02T17:17:35.160Z,4.10
2022-10-02T17:20:03.197Z,2.70
2022-10-02T17:23:05.382Z,3.17
2022-10-02T17:26:10.918Z,2.42
2022-10-02T17:28:59.049Z,3.25
2022-10-02T17:31:43.549Z,2.35
2022-10-02T17:34:23.865Z,4.07
2022-10-02T17:37:02.394Z,2.45
2022-10-02T17:40:00.191Z,4.32
2022-10-02T17:42:41.323Z,3.10
2022-10-02T17:45:18.304Z,4.20
2022-10-02T17:48:20.482Z,2.50
2022-10-02T17:51:47.553Z,3.40
2022-10-02T17:54:34.731Z,3.35
2022-10-02T17:57:33.887Z,4.78
2022-10-02T18:00:24.627Z,3.28
2022-10-02T18:03:04.739Z,3.50
2022-10-02T18:05:48.669Z,4.45
2022-10-02T18:08:36.151Z,3.13
2022-10-02T18:11:31.168Z,2.40
2022-10-02T18:14:04.412Z,3.75
2022-10-02T18:16:53.475Z,3.17
2022-10-02T18:19:42.878Z,2.88
2022-10-02T18:22:19.188Z,2.88
2022-10-02T18:25:12.516Z,4.00
2022-10-02T18:28:02.992Z,4.00
2022-10-02T18:31:02.978Z,3.50
2022-10-02T18:33:38.341Z,3.83
2022-10-02T18:36:24.700Z,3.08
2022-10-02T18:39:00.935Z,3.92
2022-10-02T18:41:46.822Z,3.35
2022-10-02T18:45:00.146Z,2.75
2022-10-02T18:47:53.611Z,2.30
2022-10-02T18:50:33.682Z,3.10
2022-10-02T18:53:11.088Z,2.47
2022-10-02T18:56:03.096Z,3.38
2022-10-02T18:58:41.827Z,2.80
2022-10-02T19:01:25.725Z,2.97
2022-10-02T19:04:17.080Z,3.03
2022-10-02T19:07:00.640Z,3.30
2022-10-02T19:09:29.864Z,3.58
2022-10-02T19:12:15.340Z,3.13
2022-10-02T19:14:47.807Z,2.65
2022-10-02T19:17:22.245Z,1.92
2022-10-02T19:19:49.903Z,2.72
2022-10-02T19:22:21.933Z,2.95
2022-10-02T19:24:56.462Z,3.50
2022-10-02T19:30:06.113Z,2.42
2022-10-02T19:32:41.291Z,2.05
2022-10-02T19:35:29.405Z,2.88
2022-10-02T19:38:09.625Z,2.30
2022-10-02T19:40:37.066Z,2.97
2022-10-02T19:43:18.361Z,2.55
2022-10-02T19:45:53.948Z,5.70
2022-10-02T19:48:21.333Z,5.00
2022-10-02T19:51:17.212Z,3.50
2022-10-02T19:54:01.471Z,2.17
2022-10-02T19:56:43.981Z,1.55
2022-10-02T19:59:25.468Z,2.25
2022-10-02T20:01:54.697Z,2.58
2022-10-02T20:04:25.902Z,3.03
2022-10-02T20:06:59.192Z,5.13
2022-10-02T20:09:51.262Z,2.22
2022-10-02T20:12:29.025Z,4.50
2022-10-02T20:15:08.480Z,3.70
2022-10-02T20:17:37.532Z,1.98
2022-10-02T20:20:12.285Z,3.65
2022-10-02T20:22:54.958Z,4.30
2022-10-02T20:25:26.517Z,4.95
2022-10-02T20:28:05.678Z,2.83
2022-10-02T20:30:42.315Z,1.23
2022-10-02T20:33:19.813Z,3.28
2022-10-02T20:35:51.121Z,2.58
2022-10-02T20:38:41.839Z,2.65
2022-10-02T20:41:18.486Z,3.55
2022-10-02T20:43:55.065Z,3.78
2022-10-02T20:47:01.876Z,2.67
2022-10-02T20:49:40.202Z,3.03
2022-10-02T20:52:31.163Z,2.35
2022-10-02T20:55:30.209Z,3.17
2022-10-02T20:58:16.342Z,2.80
2022-10-02T21:01:28.912Z,2.92
2022-10-02T21:04:07.649Z,2.60
2022-10-02T21:07:16.443Z,1.95
2022-10-02T21:09:55.586Z,2.95
2022-10-02T21:12:50.302Z,2.25
2022-10-02T21:15:23.324Z,3.53
2022-10-02T21:18:31.504Z,2.03
2022-10-02T21:21:23.180Z,2.78
2022-10-02T21:24:18.858Z,3.15
2022-10-02T21:26:58.795Z,3.60
2022-10-02T21:29:59.535Z,2.80
2022-10-02T21:32:50.540Z,1.90
2022-10-02T21:35:42.116Z,2.25
2022-10-02T21:38:36.997Z,3.28
2022-10-02T21:41:25.832Z,3.13
2022-10-02T21:44:17.916Z,1.83
2022-10-02T21:46:58.944Z,1.58
2022-10-02T21:50:17.615Z,2.50
2022-10-02T21:53:22.611Z,1.98
2022-10-02T21:55:55.422Z,2.20
2022-10-02T21:58:52.046Z,2.35
2022-10-02T22:01:30.965Z,2.20
2022-10-02T22:04:08.746Z,1.38
2022-10-02T22:07:00.282Z,2.22
2022-10-02T22:09:46.035Z,1.88
2022-10-02T22:12:39.773Z,1.75
2022-10-02T22:15:21.896Z,3.28
2022-10-02T22:18:00.186Z,2.17
2022-10-02T22:20:52.212Z,1.52
2022-10-02T22:23:41.271Z,1.77
2022-10-02T22:26:26.079Z,1.33
2022-10-02T22:28:59.043Z,2.00
2022-10-02T22:31:46.349Z,2.35
2022-10-02T22:34:44.886Z,1.67
2022-10-02T22:37:27.091Z,3.05
2022-10-02T22:40:11.138Z,2.67
2022-10-02T22:42:52.666Z,1.97
2022-10-02T22:46:02.435Z,2.65
2022-10-02T22:48:51.818Z,2.58
2022-10-02T22:51:41.100Z,1.50
2022-10-02T22:54:20.469Z,4.78
2022-10-02T22:57:03.509Z,2.10
2022-10-02T22:59:48.573Z,2.35
2022-10-02T23:02:31.354Z,2.05
2022-10-02T23:05:27.756Z,2.50
2022-10-02T23:08:21.527Z,2.58
2022-10-02T23:11:29.624Z,2.53
2022-10-02T23:14:07.405Z,2.25
2022-10-02T23:16:42.752Z,1.58
2022-10-02T23:19:27.208Z,2.58
2022-10-02T23:22:01.533Z,1.92
2022-10-02T23:24:39.571Z,2.20
2022-10-02T23:27:15.741Z,1.83
2022-10-02T23:29:58.160Z,1.33
2022-10-02T23:32:46.691Z,1.70
2022-10-02T23:35:15.508Z,2.95
2022-10-02T23:38:00.481Z,0.88
2022-10-02T23:43:48.689Z,2.15
2022-10-02T23:46:25.801Z,2.25
2022-10-02T23:48:54.835Z,2.97
2022-10-02T23:51:47.369Z,2.20
2022-10-02T23:55:10.955Z,1.55
2022-10-02T23:58:13.312Z,3.17
